Nearby METAR Reports

 

KLOT - Romeoville/Chi, Illinois, USA
Distance from station: N 3mi, 5km
Updated: Tue, 22-May-2018 4:35am CDT
Mist, Overcast
Mist, Overcast
 Wind from N
Wind: N 6 mph , 9 km/h
Temperature: 59°F , 15°C
Dew Point: 59°F , 15°C
Humidity: 100%
Barometer: 29.99 inHg , 1015.6 hPa
Summary: Mist
Clouds: Overcast
Visibility: 2 1/2 miles , 4 km
Cloud details: Overcast 200 ft
2018/05/22 09:35 KLOT 220935Z AUTO 36005KT 2 1/2SM BR OVC002 15/15 A2999 RMK AO2 T01520152
KJOT - Joliet, Illinois, USA
Distance from station: WSW 5mi, 7km
Updated: Wed, 31-Dec-1969 6:00pm CST
NOT Current
unable to load KJOT data RC=404 Not Found
unable to load KJOT data RC=404 Not Found
 
 
KC09 - Morris-Washburn, Illinois, USA
Distance from station: WSW 18mi, 29km
Updated: Tue, 22-May-2018 4:35am CDT
Mist, Overcast
Mist, Overcast
 Wind from NW
Wind: NW 3 mph , 6 km/h
Temperature: 63°F , 17°C
Dew Point: 63°F , 17°C
Humidity: 100%
Barometer: 29.98 inHg , 1015.2 hPa
Summary: Mist
Clouds: Overcast
Visibility: 1 mile , 2 km
Cloud details: Overcast 200 ft
2018/05/22 09:35 KC09 220935Z AUTO 32003KT 1SM BR OVC002 17/17 A2998 RMK AO2 T01680165
KARR - Chicago/Aurora, Illinois, USA
Distance from station: NW 24mi, 39km
Updated: Tue, 22-May-2018 4:10am CDT
Fog, Overcast
Fog, Overcast
 Wind from calm
Wind: Calm
Temperature: 59°F , 15°C
Dew Point: 59°F , 15°C
Humidity: 100%
Barometer: 29.97 inHg , 1014.9 hPa
Summary: Fog
Clouds: Overcast
Visibility: 1/4 mile , 0.4 km
Cloud details: Overcast 200 ft
2018/05/22 09:10 KARR 220910Z AUTO 00000KT 1/4SM FG VV002 15/15 A2997 RMK AO2 T01500150
 
KMDW - Chicago, Illinois, USA
Distance from station: NE 25mi, 39km
Updated: Tue, 22-May-2018 3:53am CDT
Mist, Overcast
Mist, Overcast
 Wind from N
Wind: N 7 mph , 11 km/h
Temperature: 57°F , 14°C
Dew Point: 55°F , 13°C
Humidity: 94%
Barometer: 29.97 inHg , 1014.9 hPa
Summary: Mist
Clouds: Overcast
Visibility: 1 1/4 miles , 2 km
Cloud details: Overcast 400 ft
2018/05/22 08:53 KMDW 220853Z 36006KT 1 1/4SM BR OVC004 14/13 A2997 RMK AO2 SLP148 60005 T01390133 50005
KDPA - Chicago/Dupage, Illinois, USA
Distance from station: NNW 26mi, 42km
Updated: Tue, 22-May-2018 3:52am CDT
Mist, Overcast
Mist, Overcast
 Wind from N
Wind: N 3 mph , 6 km/h
Temperature: 57°F , 14°C
Dew Point: 57°F , 14°C
Humidity: 100%
Barometer: 29.97 inHg , 1014.9 hPa
Summary: Mist
Clouds: Overcast
Visibility: 1/4 mile , 0.4 km
Cloud details: Overcast 200 ft
2018/05/22 08:52 KDPA 220852Z 01003KT 1/4SM R02L/4500FT BR OVC002 14/14 A2997 RMK AO2 SFC VIS 1 SLP149 T01390139 50001
 
KIGQ - Chicago/Lansing, Illinois, USA
Distance from station: E 30mi, 48km
Updated: Tue, 22-May-2018 4:35am CDT
Fog, Overcast
Fog, Overcast
 Wind from calm
Wind: Calm
Temperature: 55°F , 13°C
Dew Point: 55°F , 13°C
Humidity: 100%
Barometer: 29.98 inHg , 1015.2 hPa
Summary: Fog
Clouds: Overcast
Visibility: 1/2 mile , 0.8 km
Cloud details: Overcast 300 ft
2018/05/22 09:35 KIGQ 220935Z AUTO 00000KT 1/2SM FG OVC003 13/13 A2998 RMK AO2 T01260126
KORD - Chicago O'hare, Illinois, USA
Distance from station: NNE 31mi, 50km
Updated: Wed, 31-Dec-1969 6:00pm CST
NOT Current
unable to load KORD data RC=404 Not Found
unable to load KORD data RC=404 Not Found
 
 
KGYY - Gary Regional, Indiana, USA
Distance from station: E 36mi, 58km
Updated: Tue, 22-May-2018 4:15am CDT
Mist, Overcast
Mist, Overcast
 Wind from NNE
Wind: NNE 5 mph , 7 km/h
Temperature: 54°F , 12°C
Dew Point: 54°F , 12°C
Humidity: 100%
Barometer: 29.99 inHg , 1015.6 hPa
Summary: Mist
Clouds: Overcast
Visibility: 1 3/4 miles , 2.8 km
Cloud details: Overcast 100 ft
2018/05/22 09:15 KGYY 220915Z AUTO 03004KT 1 3/4SM BR OVC001 12/12 A2999 RMK AO2 T01160116
KIKK - Kankakee, Illinois, USA
Distance from station: SSE 36mi, 58km
Updated: Tue, 22-May-2018 4:35am CDT
Overcast
Overcast
 Wind from W
Wind: W 6 mph , 9 km/h
Temperature: 64°F , 18°C
Dew Point: 64°F , 18°C
Humidity: 100%
Barometer: 29.98 inHg , 1015.2 hPa
Clouds: Overcast
Visibility: 10 miles , 16 km
Cloud details: Mostly cloudy 4100 ft
Overcast 5000 ft
2018/05/22 09:35 KIKK 220935Z AUTO 27005KT 10SM BKN041 OVC050 18/18 A2998 RMK AO2 T01800176
 
KDKB - De Kalb, Illinois, USA
Distance from station: NW 40mi, 65km
Updated: Tue, 22-May-2018 4:35am CDT
Fog, Overcast
Fog, Overcast
 Wind from NE
Wind: NE 3 mph , 6 km/h
Temperature: 57°F , 14°C
Dew Point: 57°F , 14°C
Humidity: 100%
Barometer: 29.99 inHg , 1015.6 hPa
Summary: Fog
Clouds: Overcast
Visibility: 1/4 mile , 0.4 km
Cloud details: Overcast 300 ft
2018/05/22 09:35 KDKB 220935Z AUTO 04003KT 1/4SM FG OVC003 14/14 A2999 RMK AO2 T01400140
KPWK - Palwaukee, Illinois, USA
Distance from station: NNE 41mi, 65km
Updated: Tue, 22-May-2018 4:29am CDT
Mist, Overcast
Mist, Overcast
 Wind from NE
Wind: NE 3 mph , 6 km/h
Temperature: 54°F , 12°C
Dew Point: 54°F , 12°C
Humidity: 100%
Barometer: 30.00 inHg , 1015.9 hPa
Summary: Mist
Clouds: Overcast
Visibility: 1 1/2 miles , 2.4 km
Cloud details: Overcast 300 ft
2018/05/22 09:29 KPWK 220929Z AUTO 04003KT 1 1/2SM BR OVC003 12/12 A3000 RMK AO2 T01220122